createdAt,value
2016-10-15T00:00:48.810Z,999.57
2016-10-15T00:01:48.794Z,999.55
2016-10-15T00:02:48.781Z,999.49
2016-10-15T00:03:48.762Z,999.43
2016-10-15T00:04:48.743Z,999.49
2016-10-15T00:05:48.728Z,999.5
2016-10-15T00:06:48.712Z,999.53
2016-10-15T00:07:48.703Z,999.53
2016-10-15T00:08:48.678Z,999.6
2016-10-15T00:09:48.660Z,999.62
2016-10-15T00:10:48.643Z,999.68
2016-10-15T00:11:48.630Z,999.68
2016-10-15T00:12:48.610Z,999.65
2016-10-15T00:13:48.591Z,999.65
2016-10-15T00:14:48.578Z,999.63
2016-10-15T00:15:48.559Z,999.63
2016-10-15T00:16:48.540Z,999.66
2016-10-15T00:17:48.528Z,999.61
2016-10-15T00:18:48.511Z,999.55
2016-10-15T00:19:48.492Z,999.52
2016-10-15T00:20:48.479Z,999.47
2016-10-15T00:21:48.463Z,999.5
2016-10-15T00:22:48.444Z,999.47
2016-10-15T00:23:48.425Z,999.52
2016-10-15T00:24:48.410Z,999.53
2016-10-15T00:25:48.394Z,999.59
2016-10-15T00:26:48.377Z,999.62
2016-10-15T00:27:48.361Z,999.61
2016-10-15T00:28:48.342Z,999.59
2016-10-15T00:29:48.327Z,999.55
2016-10-15T00:30:48.310Z,999.57
2016-10-15T00:31:48.292Z,999.66
2016-10-15T00:32:48.274Z,999.74
2016-10-15T00:33:48.260Z,999.76
2016-10-15T00:34:48.243Z,999.78
2016-10-15T00:35:48.223Z,999.83
2016-10-15T00:36:48.210Z,999.85
2016-10-15T00:37:48.190Z,999.87
2016-10-15T00:38:48.175Z,999.83
2016-10-15T00:39:48.158Z,999.81
2016-10-15T00:40:48.141Z,999.77
2016-10-15T00:41:48.126Z,999.83
2016-10-15T00:42:48.108Z,999.87
2016-10-15T00:43:48.093Z,999.83
2016-10-15T00:44:48.074Z,999.84
2016-10-15T00:45:48.061Z,999.8
2016-10-15T00:46:48.041Z,999.73
2016-10-15T00:47:48.022Z,999.67
2016-10-15T00:48:48.005Z,999.62
2016-10-15T00:49:47.991Z,999.59
2016-10-15T00:50:47.974Z,999.55
2016-10-15T00:51:47.957Z,999.59
2016-10-15T00:52:47.943Z,999.71
2016-10-15T00:53:47.924Z,999.66
2016-10-15T00:54:47.907Z,999.64
2016-10-15T00:55:47.888Z,999.6
2016-10-15T00:56:47.875Z,999.68
2016-10-15T00:57:47.857Z,999.66
2016-10-15T00:58:47.838Z,999.7
2016-10-15T00:59:47.823Z,999.7
2016-10-15T01:00:47.805Z,999.72
2016-10-15T01:01:47.789Z,999.72
2016-10-15T01:02:47.770Z,999.71
2016-10-15T01:03:47.759Z,999.69
2016-10-15T01:04:47.737Z,999.67
2016-10-15T01:05:47.725Z,999.7
2016-10-15T01:06:47.701Z,999.69
2016-10-15T01:07:47.687Z,999.7
2016-10-15T01:08:47.668Z,999.72
2016-10-15T01:09:47.652Z,999.71
2016-10-15T01:10:47.639Z,999.73
2016-10-15T01:11:47.620Z,999.68
2016-10-15T01:12:47.601Z,999.7
2016-10-15T01:13:47.587Z,999.7
2016-10-15T01:14:47.567Z,999.7
2016-10-15T01:15:47.552Z,999.65
2016-10-15T01:16:47.535Z,999.65
2016-10-15T01:17:47.518Z,999.61
2016-10-15T01:18:47.500Z,999.58
2016-10-15T01:19:47.489Z,999.58
2016-10-15T01:20:47.465Z,999.61
2016-10-15T01:21:47.464Z,999.65
2016-10-15T01:22:47.432Z,999.66
2016-10-15T01:23:47.417Z,999.67
2016-10-15T01:24:47.399Z,999.66
2016-10-15T01:25:47.393Z,999.61
2016-10-15T01:26:47.367Z,999.6
2016-10-15T01:27:47.349Z,999.6
2016-10-15T01:28:47.336Z,999.56
2016-10-15T01:29:47.317Z,999.57
2016-10-15T01:30:47.299Z,999.57
2016-10-15T01:31:47.284Z,999.57
2016-10-15T01:32:47.265Z,999.59
2016-10-15T01:33:47.246Z,999.57
2016-10-15T01:34:47.230Z,999.56
2016-10-15T01:35:47.219Z,999.54
2016-10-15T01:36:47.196Z,999.52
2016-10-15T01:37:47.181Z,999.49
2016-10-15T01:38:47.163Z,999.46
2016-10-15T01:39:47.153Z,999.5
2016-10-15T01:40:47.133Z,999.43
2016-10-15T01:41:47.115Z,999.42
2016-10-15T01:42:47.097Z,999.43
2016-10-15T01:43:47.079Z,999.45
2016-10-15T01:44:47.064Z,999.41
2016-10-15T01:45:47.049Z,999.39
2016-10-15T01:46:47.029Z,999.4
2016-10-15T01:47:47.012Z,999.42
2016-10-15T01:48:46.997Z,999.38
2016-10-15T01:49:46.981Z,999.4
2016-10-15T01:50:46.962Z,999.37
2016-10-15T01:51:46.948Z,999.32
2016-10-15T01:52:46.930Z,999.34
2016-10-15T01:53:46.916Z,999.37
2016-10-15T01:54:46.895Z,999.37
2016-10-15T01:55:46.878Z,999.36
2016-10-15T01:56:46.863Z,999.33
2016-10-15T01:57:46.847Z,999.29
2016-10-15T01:58:46.826Z,999.3
2016-10-15T01:59:46.812Z,999.35
2016-10-15T02:00:46.796Z,999.43
2016-10-15T02:01:46.778Z,999.46
2016-10-15T02:02:46.764Z,999.52
2016-10-15T02:03:46.750Z,999.51
2016-10-15T02:04:46.727Z,999.48
2016-10-15T02:05:46.712Z,999.42
2016-10-15T02:06:46.694Z,999.4
2016-10-15T02:07:46.677Z,999.38
2016-10-15T02:08:46.660Z,999.38
2016-10-15T02:09:46.645Z,999.4
2016-10-15T02:10:46.627Z,999.44
2016-10-15T02:11:46.613Z,999.41
2016-10-15T02:12:46.593Z,999.4
2016-10-15T02:13:46.578Z,999.43
2016-10-15T02:14:46.561Z,999.49
2016-10-15T02:15:46.544Z,999.44
2016-10-15T02:16:46.528Z,999.47
2016-10-15T02:17:46.509Z,999.45
2016-10-15T02:18:46.494Z,999.46
2016-10-15T02:19:46.477Z,999.48
2016-10-15T02:20:46.459Z,999.44
2016-10-15T02:21:46.442Z,999.43
2016-10-15T02:22:46.428Z,999.42
2016-10-15T02:23:46.410Z,999.46
2016-10-15T02:24:46.393Z,999.41
2016-10-15T02:25:46.378Z,999.39
2016-10-15T02:26:46.375Z,999.43
2016-10-15T02:27:46.341Z,999.42
2016-10-15T02:28:46.326Z,999.42
2016-10-15T02:29:46.307Z,999.36
2016-10-15T02:30:46.290Z,999.35
2016-10-15T02:31:46.275Z,999.43
2016-10-15T02:32:46.259Z,999.44
2016-10-15T02:33:46.242Z,999.39
2016-10-15T02:34:46.229Z,999.37
2016-10-15T02:35:46.204Z,999.33
2016-10-15T02:36:46.191Z,999.33
2016-10-15T02:37:46.175Z,999.36
2016-10-15T02:38:46.158Z,999.36
2016-10-15T02:39:46.139Z,999.37
2016-10-15T02:40:46.122Z,999.37
2016-10-15T02:41:46.104Z,999.35
2016-10-15T02:42:46.091Z,999.34
2016-10-15T02:43:46.074Z,999.31
2016-10-15T02:44:46.059Z,999.36
2016-10-15T02:45:46.039Z,999.31
2016-10-15T02:46:46.023Z,999.32
2016-10-15T02:47:46.007Z,999.3
2016-10-15T02:48:45.990Z,999.27
2016-10-15T02:49:45.971Z,999.28
2016-10-15T02:50:45.960Z,999.27
2016-10-15T02:51:45.941Z,999.27
2016-10-15T02:52:45.921Z,999.3
2016-10-15T02:53:45.906Z,999.32
2016-10-15T02:54:45.889Z,999.33
2016-10-15T02:55:45.871Z,999.33
2016-10-15T02:56:45.852Z,999.36
2016-10-15T02:57:45.843Z,999.33
2016-10-15T02:58:45.822Z,999.32
2016-10-15T02:59:45.807Z,999.32
2016-10-15T03:00:45.788Z,999.3
2016-10-15T03:01:45.770Z,999.3
2016-10-15T03:02:45.755Z,999.31
2016-10-15T03:03:45.738Z,999.29
2016-10-15T03:04:45.721Z,999.27
2016-10-15T03:05:45.704Z,999.27
2016-10-15T03:06:45.689Z,999.23
2016-10-15T03:07:45.670Z,999.28
2016-10-15T03:08:45.654Z,999.27
2016-10-15T03:09:45.637Z,999.26
2016-10-15T03:10:45.622Z,999.28
2016-10-15T03:11:45.603Z,999.25
2016-10-15T03:12:45.588Z,999.28
2016-10-15T03:13:45.573Z,999.25
2016-10-15T03:14:45.552Z,999.23
2016-10-15T03:15:45.538Z,999.26
2016-10-15T03:16:45.521Z,999.26
2016-10-15T03:17:45.504Z,999.31
2016-10-15T03:18:45.487Z,999.33
2016-10-15T03:19:45.470Z,999.34
2016-10-15T03:20:45.455Z,999.35
2016-10-15T03:21:45.437Z,999.34
2016-10-15T03:22:45.422Z,999.32
2016-10-15T03:23:45.401Z,999.3
2016-10-15T03:24:45.392Z,999.29
2016-10-15T03:25:45.371Z,999.32
2016-10-15T03:26:45.354Z,999.38
2016-10-15T03:27:45.335Z,999.47
2016-10-15T03:28:45.319Z,999.49
2016-10-15T03:29:45.304Z,999.48
2016-10-15T03:30:45.285Z,999.49
2016-10-15T03:31:45.269Z,999.55
2016-10-15T03:32:45.253Z,999.5
2016-10-15T03:33:45.235Z,999.48
2016-10-15T03:34:45.220Z,999.43
2016-10-15T03:35:45.203Z,999.49
2016-10-15T03:36:45.186Z,999.51
2016-10-15T03:37:45.167Z,999.52
2016-10-15T03:38:45.156Z,999.51
2016-10-15T03:39:45.136Z,999.52
2016-10-15T03:40:45.117Z,999.52
2016-10-15T03:41:45.100Z,999.5
2016-10-15T03:42:45.084Z,999.54
2016-10-15T03:43:45.066Z,999.56
2016-10-15T03:44:45.051Z,999.56
2016-10-15T03:45:45.035Z,999.58
2016-10-15T03:46:45.018Z,999.62
2016-10-15T03:47:45.001Z,999.59
2016-10-15T03:48:44.984Z,999.59
2016-10-15T03:49:44.965Z,999.6
2016-10-15T03:50:44.951Z,999.58
2016-10-15T03:51:44.932Z,999.56
2016-10-15T03:52:44.918Z,999.51
2016-10-15T03:53:44.898Z,999.49
2016-10-15T03:54:44.881Z,999.5
2016-10-15T03:55:44.865Z,999.51
2016-10-15T03:56:44.850Z,999.46
2016-10-15T03:57:44.834Z,999.51
2016-10-15T03:58:44.816Z,999.48
2016-10-15T03:59:44.801Z,999.49
2016-10-15T04:00:44.782Z,999.49
2016-10-15T04:01:44.766Z,999.5
2016-10-15T04:02:44.745Z,999.51
2016-10-15T04:03:44.730Z,999.54
2016-10-15T04:04:44.717Z,999.55
2016-10-15T04:05:44.708Z,999.57
2016-10-15T04:06:44.681Z,999.57
2016-10-15T04:07:44.661Z,999.59
2016-10-15T04:08:44.650Z,999.58
2016-10-15T04:09:44.631Z,999.57
2016-10-15T04:10:44.618Z,999.62
2016-10-15T04:11:44.596Z,999.67
2016-10-15T04:12:44.581Z,999.68
2016-10-15T04:13:44.564Z,999.67
2016-10-15T04:14:44.547Z,999.67
2016-10-15T04:15:44.528Z,999.67
2016-10-15T04:16:44.513Z,999.68
2016-10-15T04:17:44.495Z,999.69
2016-10-15T04:18:44.480Z,999.7
2016-10-15T04:19:44.465Z,999.64
2016-10-15T04:20:44.444Z,999.66
2016-10-15T04:21:44.429Z,999.68
2016-10-15T04:22:44.412Z,999.66
2016-10-15T04:23:44.396Z,999.73
2016-10-15T04:24:44.387Z,999.69
2016-10-15T04:25:44.362Z,999.66
2016-10-15T04:26:44.345Z,999.6
2016-10-15T04:27:44.328Z,999.64
2016-10-15T04:28:44.312Z,999.63
2016-10-15T04:29:44.295Z,999.64
2016-10-15T04:30:44.278Z,999.6
2016-10-15T04:31:44.263Z,999.59
2016-10-15T04:32:44.244Z,999.61
2016-10-15T04:33:44.229Z,999.68
2016-10-15T04:34:44.212Z,999.67
2016-10-15T04:35:44.197Z,999.69
2016-10-15T04:36:44.177Z,999.72
2016-10-15T04:37:44.162Z,999.7
2016-10-15T04:38:44.145Z,999.68
2016-10-15T04:39:44.128Z,999.71
2016-10-15T04:40:44.112Z,999.74
2016-10-15T04:41:44.095Z,999.71
2016-10-15T04:42:44.078Z,999.73
2016-10-15T04:43:44.061Z,999.76
2016-10-15T04:44:44.044Z,999.8
2016-10-15T04:45:44.029Z,999.77
2016-10-15T04:46:44.011Z,999.76
2016-10-15T04:47:43.993Z,999.77
2016-10-15T04:48:43.979Z,999.79
2016-10-15T04:49:43.962Z,999.81
2016-10-15T04:50:43.944Z,999.93
2016-10-15T04:51:43.926Z,999.9
2016-10-15T04:52:43.912Z,999.95
2016-10-15T04:53:43.895Z,999.87
2016-10-15T04:54:43.878Z,999.88
2016-10-15T04:55:43.863Z,999.95
2016-10-15T04:56:43.846Z,999.93
2016-10-15T04:57:43.828Z,999.93
2016-10-15T04:58:43.813Z,999.9
2016-10-15T04:59:43.796Z,999.88
2016-10-15T05:00:43.777Z,999.86
2016-10-15T05:01:43.762Z,999.81
2016-10-15T05:02:43.745Z,999.87
2016-10-15T05:03:43.729Z,999.88
2016-10-15T05:04:43.710Z,999.89
2016-10-15T05:05:43.697Z,999.97
2016-10-15T05:06:43.678Z,999.99
2016-10-15T05:07:43.665Z,999.99
2016-10-15T05:08:43.645Z,1000.09
2016-10-15T05:09:43.628Z,1000.11
2016-10-15T05:10:43.611Z,1000.11
2016-10-15T05:11:43.594Z,1000.17
2016-10-15T05:12:43.579Z,1000.21
2016-10-15T05:13:43.562Z,1000.23
2016-10-15T05:14:43.546Z,1000.24
2016-10-15T05:15:43.527Z,1000.19
2016-10-15T05:16:43.516Z,1000.17
2016-10-15T05:17:43.495Z,1000.15
2016-10-15T05:18:43.481Z,1000.12
2016-10-15T05:19:43.461Z,1000.11
2016-10-15T05:20:43.446Z,1000.15
2016-10-15T05:21:43.427Z,1000.18
2016-10-15T05:22:43.411Z,1000.17
2016-10-15T05:23:43.396Z,1000.17
2016-10-15T05:24:43.378Z,1000.17
2016-10-15T05:25:43.361Z,1000.18
2016-10-15T05:26:43.346Z,1000.15
2016-10-15T05:27:43.331Z,1000.17
2016-10-15T05:28:43.312Z,1000.18
2016-10-15T05:29:43.294Z,1000.17
2016-10-15T05:30:43.277Z,1000.17
2016-10-15T05:31:43.261Z,1000.19
2016-10-15T05:32:43.246Z,1000.15
2016-10-15T05:33:43.227Z,1000.2
2016-10-15T05:34:43.212Z,1000.17
2016-10-15T05:35:43.194Z,1000.19
2016-10-15T05:36:43.181Z,1000.22
2016-10-15T05:37:43.160Z,1000.25
2016-10-15T05:38:43.145Z,1000.18
2016-10-15T05:39:43.127Z,1000.17
2016-10-15T05:40:43.110Z,1000.15
2016-10-15T05:41:43.095Z,1000.2
2016-10-15T05:42:43.078Z,1000.2
2016-10-15T05:43:43.066Z,1000.16
2016-10-15T05:44:43.043Z,1000.15
2016-10-15T05:45:43.028Z,1000.17
2016-10-15T05:46:43.011Z,1000.19
2016-10-15T05:47:42.995Z,1000.18
2016-10-15T05:48:42.979Z,1000.26
2016-10-15T05:49:42.961Z,1000.24
2016-10-15T05:50:42.944Z,1000.25
2016-10-15T05:51:42.926Z,1000.24
2016-10-15T05:52:42.915Z,1000.23
2016-10-15T05:53:42.894Z,1000.23
2016-10-15T05:54:42.878Z,1000.28
2016-10-15T05:55:42.861Z,1000.27
2016-10-15T05:56:42.844Z,1000.34
2016-10-15T05:57:42.829Z,1000.32
2016-10-15T05:58:42.812Z,1000.35
2016-10-15T05:59:42.797Z,1000.4
2016-10-15T06:00:42.781Z,1000.39
2016-10-15T06:01:42.767Z,1000.35
2016-10-15T06:02:42.745Z,1000.38
2016-10-15T06:03:42.728Z,1000.35
2016-10-15T06:04:42.711Z,1000.42
2016-10-15T06:05:42.695Z,1000.44
2016-10-15T06:06:42.677Z,1000.47
2016-10-15T06:07:42.661Z,1000.46
2016-10-15T06:08:42.648Z,1000.44
2016-10-15T06:09:42.629Z,1000.47
2016-10-15T06:10:42.613Z,1000.5
2016-10-15T06:11:42.596Z,1000.53
2016-10-15T06:12:42.583Z,1000.5
2016-10-15T06:13:42.564Z,1000.55
2016-10-15T06:14:42.545Z,1000.54
2016-10-15T06:15:42.530Z,1000.59
2016-10-15T06:16:42.512Z,1000.63
2016-10-15T06:17:42.498Z,1000.66
2016-10-15T06:18:42.480Z,1000.64
2016-10-15T06:19:42.462Z,1000.66
2016-10-15T06:20:42.447Z,1000.69
2016-10-15T06:21:42.430Z,1000.7
2016-10-15T06:22:42.415Z,1000.74
2016-10-15T06:23:42.398Z,1000.78
2016-10-15T06:24:42.380Z,1000.72
2016-10-15T06:25:42.363Z,1000.75
2016-10-15T06:26:42.348Z,1000.8
2016-10-15T06:27:42.331Z,1000.8
2016-10-15T06:28:42.314Z,1000.82
2016-10-15T06:29:42.298Z,1000.86
2016-10-15T06:30:42.285Z,1000.88
2016-10-15T06:31:42.264Z,1000.93
2016-10-15T06:32:42.249Z,1000.87
2016-10-15T06:33:42.232Z,1000.92
2016-10-15T06:34:42.216Z,1000.91
2016-10-15T06:35:42.201Z,1000.96
2016-10-15T06:36:42.182Z,1000.99
2016-10-15T06:37:42.165Z,1000.98
2016-10-15T06:38:42.150Z,1001.04
2016-10-15T06:39:42.133Z,1001.05
2016-10-15T06:40:42.115Z,1001.11
2016-10-15T06:41:42.105Z,1001.15
2016-10-15T06:42:42.083Z,1001.21
2016-10-15T06:43:42.066Z,1001.22
2016-10-15T06:44:42.050Z,1001.22
2016-10-15T06:45:42.034Z,1001.32
2016-10-15T06:46:42.016Z,1001.27
2016-10-15T06:47:42.001Z,1001.27
2016-10-15T06:48:41.984Z,1001.28
2016-10-15T06:49:41.968Z,1001.32
2016-10-15T06:50:41.955Z,1001.36
2016-10-15T06:51:41.936Z,1001.31
2016-10-15T06:52:41.919Z,1001.4
2016-10-15T06:53:41.900Z,1001.4
2016-10-15T06:54:41.885Z,1001.43
2016-10-15T06:55:41.869Z,1001.43
2016-10-15T06:56:41.852Z,1001.47
2016-10-15T06:57:41.835Z,1001.49
2016-10-15T06:58:41.817Z,1001.51
2016-10-15T06:59:41.803Z,1001.51
2016-10-15T07:00:41.785Z,1001.54
2016-10-15T07:01:41.768Z,1001.51
2016-10-15T07:02:41.753Z,1001.53
2016-10-15T07:03:41.736Z,1001.54
2016-10-15T07:04:41.719Z,1001.53
2016-10-15T07:05:41.703Z,1001.56
2016-10-15T07:06:41.686Z,1001.56
2016-10-15T07:07:41.671Z,1001.61
2016-10-15T07:08:41.654Z,1001.63
2016-10-15T07:09:41.637Z,1001.64
2016-10-15T07:10:41.621Z,1001.7
2016-10-15T07:11:41.604Z,1001.71
2016-10-15T07:12:41.587Z,1001.72
2016-10-15T07:13:41.573Z,1001.74
2016-10-15T07:14:41.555Z,1001.8
2016-10-15T07:15:41.541Z,1001.81
2016-10-15T07:16:41.520Z,1001.89
2016-10-15T07:17:41.505Z,1001.83
2016-10-15T07:18:41.488Z,1001.88
2016-10-15T07:19:41.476Z,1001.92
2016-10-15T07:20:41.456Z,1001.86
2016-10-15T07:21:41.438Z,1001.88
2016-10-15T07:22:41.423Z,1001.9
2016-10-15T07:23:41.406Z,1001.91
2016-10-15T07:24:41.390Z,1001.91
2016-10-15T07:25:41.373Z,1001.92
2016-10-15T07:26:41.356Z,1001.92
2016-10-15T07:27:41.341Z,1001.85
2016-10-15T07:28:41.324Z,1001.89
2016-10-15T07:29:41.307Z,1001.87
2016-10-15T07:30:41.290Z,1001.88
2016-10-15T07:31:41.276Z,1001.87
2016-10-15T07:32:41.259Z,1001.92
2016-10-15T07:33:41.244Z,1001.94
2016-10-15T07:34:41.225Z,1001.91
2016-10-15T07:35:41.207Z,1001.9
2016-10-15T07:36:41.194Z,1001.89
2016-10-15T07:37:41.173Z,1001.89
2016-10-15T07:38:41.157Z,1001.96
2016-10-15T07:39:41.140Z,1001.95
2016-10-15T07:40:41.125Z,1001.94
2016-10-15T07:41:41.108Z,1001.97
2016-10-15T07:42:41.092Z,1001.95
2016-10-15T07:43:41.075Z,1001.94
2016-10-15T07:44:41.062Z,1001.96
2016-10-15T07:45:41.041Z,1001.96
2016-10-15T07:46:41.024Z,1002.02
2016-10-15T07:47:41.009Z,1002.02
2016-10-15T07:48:40.994Z,1002.04
2016-10-15T07:49:40.974Z,1002.05
2016-10-15T07:50:40.959Z,1002.04
2016-10-15T07:51:40.942Z,1002.06
2016-10-15T07:52:40.925Z,1002.15
2016-10-15T07:53:40.908Z,1002.12
2016-10-15T07:54:40.893Z,1002.16
2016-10-15T07:55:40.875Z,1002.2
2016-10-15T07:56:40.860Z,1002.22
2016-10-15T07:57:40.843Z,1002.23
2016-10-15T07:58:40.827Z,1002.24
2016-10-15T07:59:40.810Z,1002.28
2016-10-15T08:00:40.793Z,1002.32
2016-10-15T08:01:40.776Z,1002.32
2016-10-15T08:02:40.768Z,1002.35
2016-10-15T08:03:40.743Z,1002.34
2016-10-15T08:04:40.730Z,1002.36
2016-10-15T08:05:40.711Z,1002.41
2016-10-15T08:06:40.694Z,1002.46
2016-10-15T08:07:40.675Z,1002.47
2016-10-15T08:08:40.661Z,1002.47
2016-10-15T08:09:40.644Z,1002.49
2016-10-15T08:10:40.627Z,1002.48
2016-10-15T08:11:40.612Z,1002.54
2016-10-15T08:12:40.594Z,1002.55
2016-10-15T08:13:40.579Z,1002.52
2016-10-15T08:14:40.556Z,1002.56
2016-10-15T08:15:40.545Z,1002.56
2016-10-15T08:16:40.528Z,1002.57
2016-10-15T08:17:40.510Z,1002.54
2016-10-15T08:18:40.497Z,1002.57
2016-10-15T08:19:40.478Z,1002.55
2016-10-15T08:20:40.467Z,1002.59
2016-10-15T08:21:40.446Z,1002.6
2016-10-15T08:22:40.428Z,1002.66
2016-10-15T08:23:40.413Z,1002.67
2016-10-15T08:24:40.406Z,1002.66
2016-10-15T08:25:40.378Z,1002.67
2016-10-15T08:26:40.366Z,1002.68
2016-10-15T08:27:40.347Z,1002.7
2016-10-15T08:28:40.329Z,1002.71
2016-10-15T08:29:40.320Z,1002.72
2016-10-15T08:30:40.296Z,1002.77
2016-10-15T08:31:40.281Z,1002.81
2016-10-15T08:32:40.266Z,1002.86
2016-10-15T08:33:40.246Z,1002.85
2016-10-15T08:34:40.232Z,1002.88
2016-10-15T08:35:40.216Z,1002.92
2016-10-15T08:36:40.196Z,1002.92
2016-10-15T08:37:40.183Z,1002.97
2016-10-15T08:38:40.165Z,1002.93
2016-10-15T08:39:40.148Z,1002.97
2016-10-15T08:40:40.130Z,1003.02
2016-10-15T08:41:40.115Z,1003
2016-10-15T08:42:40.098Z,1003.03
2016-10-15T08:43:40.082Z,1003.04
2016-10-15T08:44:40.065Z,1003.02
2016-10-15T08:45:40.049Z,1003.02
2016-10-15T08:46:40.033Z,1003.1
2016-10-15T08:47:40.016Z,1003.12
2016-10-15T08:48:39.998Z,1003.13
2016-10-15T08:49:39.983Z,1003.16
2016-10-15T08:50:39.966Z,1003.18
2016-10-15T08:51:39.959Z,1003.21
2016-10-15T08:52:39.934Z,1003.26
2016-10-15T08:53:39.916Z,1003.3
2016-10-15T08:54:39.899Z,1003.28
2016-10-15T08:55:39.883Z,1003.26
2016-10-15T08:56:39.869Z,1003.31
2016-10-15T08:57:39.851Z,1003.31
2016-10-15T08:58:39.840Z,1003.32
2016-10-15T08:59:39.819Z,1003.36
2016-10-15T09:00:39.802Z,1003.42
2016-10-15T09:01:39.786Z,1003.4
2016-10-15T09:02:39.768Z,1003.46
2016-10-15T09:03:39.752Z,1003.46
2016-10-15T09:04:39.745Z,1003.47
2016-10-15T09:05:39.720Z,1003.46
2016-10-15T09:06:39.700Z,1003.47
2016-10-15T09:07:39.687Z,1003.5
2016-10-15T09:08:39.670Z,1003.51
2016-10-15T09:09:39.650Z,1003.5
2016-10-15T09:10:39.632Z,1003.51
2016-10-15T09:11:39.623Z,1003.54
2016-10-15T09:12:39.603Z,1003.53
2016-10-15T09:13:39.584Z,1003.56
2016-10-15T09:14:39.571Z,1003.57
2016-10-15T09:15:39.553Z,1003.6
2016-10-15T09:16:39.536Z,1003.6
2016-10-15T09:17:39.521Z,1003.6
2016-10-15T09:18:39.502Z,1003.58
2016-10-15T09:19:39.488Z,1003.57
2016-10-15T09:20:39.471Z,1003.62
2016-10-15T09:21:39.456Z,1003.65
2016-10-15T09:22:39.437Z,1003.64
2016-10-15T09:23:39.422Z,1003.64
2016-10-15T09:24:39.405Z,1003.63
2016-10-15T09:25:39.390Z,1003.62
2016-10-15T09:26:39.372Z,1003.63
2016-10-15T09:27:39.355Z,1003.64
2016-10-15T09:28:39.339Z,1003.64
2016-10-15T09:29:39.322Z,1003.68
2016-10-15T09:30:39.307Z,1003.71
2016-10-15T09:31:39.295Z,1003.69
2016-10-15T09:32:39.273Z,1003.71
2016-10-15T09:33:39.258Z,1003.7
2016-10-15T09:34:39.239Z,1003.81
2016-10-15T09:35:39.223Z,1003.76
2016-10-15T09:36:39.208Z,1003.77
2016-10-15T09:37:39.191Z,1003.78
2016-10-15T09:38:39.173Z,1003.83
2016-10-15T09:39:39.158Z,1003.82
2016-10-15T09:40:39.141Z,1003.88
2016-10-15T09:41:39.124Z,1003.87
2016-10-15T09:42:39.108Z,1003.92
2016-10-15T09:43:39.091Z,1003.92
2016-10-15T09:44:39.076Z,1003.89
2016-10-15T09:45:39.059Z,1003.91
2016-10-15T09:46:39.042Z,1003.96
2016-10-15T09:47:39.032Z,1003.94
2016-10-15T09:48:39.009Z,1003.98
2016-10-15T09:49:38.990Z,1003.97
2016-10-15T09:50:38.979Z,1003.97
2016-10-15T09:51:38.958Z,1004.01
2016-10-15T09:52:38.941Z,1004.03
2016-10-15T09:53:38.927Z,1004.05
2016-10-15T09:54:38.911Z,1004.03
2016-10-15T09:55:38.895Z,1004.04
2016-10-15T09:56:38.878Z,1004.08
2016-10-15T09:57:38.861Z,1004.11
2016-10-15T09:58:38.845Z,1004.15
2016-10-15T09:59:38.831Z,1004.15
2016-10-15T10:00:38.813Z,1004.18
2016-10-15T10:01:38.795Z,1004.17
2016-10-15T10:02:38.778Z,1004.16
2016-10-15T10:03:38.761Z,1004.17
2016-10-15T10:04:38.744Z,1004.19
2016-10-15T10:05:38.732Z,1004.21
2016-10-15T10:06:38.716Z,1004.22
2016-10-15T10:07:38.697Z,1004.25
2016-10-15T10:08:38.679Z,1004.17
2016-10-15T10:09:38.671Z,1004.22
2016-10-15T10:10:38.652Z,1004.22
2016-10-15T10:11:38.630Z,1004.24
2016-10-15T10:12:38.615Z,1004.29
2016-10-15T10:13:38.597Z,1004.3
2016-10-15T10:14:38.580Z,1004.39
2016-10-15T10:15:38.567Z,1004.31
2016-10-15T10:16:38.547Z,1004.31
2016-10-15T10:17:38.532Z,1004.38
2016-10-15T10:18:38.513Z,1004.39
2016-10-15T10:19:38.496Z,1004.38
2016-10-15T10:20:38.483Z,1004.48
2016-10-15T10:21:38.465Z,1004.52
2016-10-15T10:22:38.448Z,1004.5
2016-10-15T10:23:38.435Z,1004.55
2016-10-15T10:24:38.415Z,1004.61
2016-10-15T10:25:38.402Z,1004.54
2016-10-15T10:26:38.383Z,1004.61
2016-10-15T10:27:38.366Z,1004.56
2016-10-15T10:28:38.349Z,1004.64
2016-10-15T10:29:38.333Z,1004.67
2016-10-15T10:30:38.316Z,1004.64
2016-10-15T10:31:38.299Z,1004.66
2016-10-15T10:32:38.284Z,1004.65
2016-10-15T10:33:38.267Z,1004.68
2016-10-15T10:34:38.253Z,1004.69
2016-10-15T10:35:38.233Z,1004.71
2016-10-15T10:36:38.217Z,1004.7
2016-10-15T10:37:38.200Z,1004.74
2016-10-15T10:38:38.186Z,1004.77
2016-10-15T10:39:38.174Z,1004.81
2016-10-15T10:40:38.156Z,1004.8
2016-10-15T10:41:38.139Z,1004.83
2016-10-15T10:42:38.119Z,1004.81
2016-10-15T10:43:38.102Z,1004.86
2016-10-15T10:44:38.087Z,1004.88
2016-10-15T10:45:38.076Z,1004.93
2016-10-15T10:46:38.055Z,1004.89
2016-10-15T10:47:38.036Z,1004.94
2016-10-15T10:48:38.022Z,1004.95
2016-10-15T10:49:38.003Z,1004.92
2016-10-15T10:50:37.991Z,1004.97
2016-10-15T10:51:37.970Z,1004.97
2016-10-15T10:52:37.953Z,1005
2016-10-15T10:53:37.938Z,1005.01
2016-10-15T10:54:37.923Z,1005.05
2016-10-15T10:55:37.905Z,1005.04
2016-10-15T10:56:37.888Z,1005.01
2016-10-15T10:57:37.883Z,1005.11
2016-10-15T10:58:37.854Z,1005.16
2016-10-15T10:59:37.839Z,1005.18
2016-10-15T11:00:37.823Z,1005.22
2016-10-15T11:01:37.808Z,1005.23
2016-10-15T11:02:37.790Z,1005.26
2016-10-15T11:03:37.774Z,1005.36
2016-10-15T11:04:37.759Z,1005.31
2016-10-15T11:05:37.744Z,1005.37
2016-10-15T11:06:37.726Z,1005.38
2016-10-15T11:07:37.710Z,1005.39
2016-10-15T11:08:37.691Z,1005.41
2016-10-15T11:09:37.677Z,1005.45
2016-10-15T11:10:37.660Z,1005.46
2016-10-15T11:11:37.645Z,1005.53
2016-10-15T11:12:37.627Z,1005.43
2016-10-15T11:13:37.610Z,1005.44
2016-10-15T11:14:37.590Z,1005.52
2016-10-15T11:15:37.578Z,1005.49
2016-10-15T11:16:37.569Z,1005.52
2016-10-15T11:17:37.543Z,1005.49
2016-10-15T11:18:37.531Z,1005.56
2016-10-15T11:19:37.511Z,1005.54
2016-10-15T11:20:37.494Z,1005.57
2016-10-15T11:21:37.479Z,1005.59
2016-10-15T11:22:37.464Z,1005.59
2016-10-15T11:23:37.446Z,1005.56
2016-10-15T11:24:37.429Z,1005.6
2016-10-15T11:25:37.413Z,1005.66
2016-10-15T11:26:37.396Z,1005.65
2016-10-15T11:27:37.381Z,1005.69
2016-10-15T11:28:37.364Z,1005.7
2016-10-15T11:29:37.344Z,1005.69
2016-10-15T11:30:37.331Z,1005.74
2016-10-15T11:31:37.314Z,1005.73
2016-10-15T11:32:37.296Z,1005.71
2016-10-15T11:33:37.281Z,1005.74
2016-10-15T11:34:37.264Z,1005.79
2016-10-15T11:35:37.247Z,1005.85
2016-10-15T11:36:37.235Z,1005.84
2016-10-15T11:37:37.214Z,1005.87
2016-10-15T11:38:37.195Z,1005.87
2016-10-15T11:39:37.181Z,1005.83
2016-10-15T11:40:37.165Z,1005.93
2016-10-15T11:41:37.149Z,1005.87
2016-10-15T11:42:37.132Z,1005.86
2016-10-15T11:43:37.113Z,1005.91
2016-10-15T11:44:37.099Z,1005.91
2016-10-15T11:45:37.132Z,1005.96
2016-10-15T11:46:37.065Z,1005.97
2016-10-15T11:47:37.047Z,1005.96
2016-10-15T11:48:37.035Z,1005.97
2016-10-15T11:49:37.022Z,1005.94
2016-10-15T11:50:37.000Z,1006.03
2016-10-15T11:51:36.983Z,1006.01
2016-10-15T11:52:36.967Z,1006.04
2016-10-15T11:53:36.950Z,1006.02
2016-10-15T11:54:36.934Z,1006.07
2016-10-15T11:55:36.921Z,1006.08
2016-10-15T11:56:36.901Z,1006.08
2016-10-15T11:57:36.884Z,1006.08
2016-10-15T11:58:36.869Z,1006.14
2016-10-15T11:59:36.851Z,1006.09
2016-10-15T12:00:36.834Z,1006.14
2016-10-15T12:01:36.819Z,1006.16
2016-10-15T12:02:37.052Z,1006.21
2016-10-15T12:03:36.785Z,1006.2
2016-10-15T12:04:36.770Z,1006.21
2016-10-15T12:05:36.757Z,1006.25
2016-10-15T12:06:36.736Z,1006.24
2016-10-15T12:07:36.720Z,1006.23
2016-10-15T12:08:36.707Z,1006.25
2016-10-15T12:09:36.687Z,1006.29
2016-10-15T12:10:36.671Z,1006.27
2016-10-15T12:11:36.655Z,1006.29
2016-10-15T12:12:36.638Z,1006.32
2016-10-15T12:13:36.625Z,1006.36
2016-10-15T12:14:36.607Z,1006.3
2016-10-15T12:15:36.590Z,1006.33
2016-10-15T12:16:36.573Z,1006.36
2016-10-15T12:17:36.556Z,1006.33